createdAt,value
2022-10-05T00:00:31.929Z,0
2022-10-05T00:01:31.802Z,0
2022-10-05T00:02:31.701Z,0
2022-10-05T00:03:31.695Z,0
2022-10-05T00:04:31.720Z,0
2022-10-05T00:05:31.748Z,0
2022-10-05T00:06:31.718Z,0
2022-10-05T00:07:31.680Z,0
2022-10-05T00:08:31.768Z,0
2022-10-05T00:09:31.716Z,0
2022-10-05T00:10:31.716Z,0
2022-10-05T00:11:31.687Z,0
2022-10-05T00:12:31.718Z,0
2022-10-05T00:13:31.711Z,0
2022-10-05T00:14:31.707Z,0
2022-10-05T00:15:31.691Z,0
2022-10-05T00:16:31.758Z,0
2022-10-05T00:17:31.778Z,0
2022-10-05T00:18:31.700Z,0
2022-10-05T00:19:31.731Z,0
2022-10-05T00:20:31.720Z,0
2022-10-05T00:21:31.731Z,0
2022-10-05T00:22:31.782Z,0
2022-10-05T00:23:31.698Z,0
2022-10-05T00:24:31.776Z,0
2022-10-05T00:25:31.711Z,0
2022-10-05T00:26:31.723Z,0
2022-10-05T00:27:31.676Z,0
2022-10-05T00:28:31.771Z,0
2022-10-05T00:29:31.723Z,0
2022-10-05T00:30:31.730Z,0
2022-10-05T00:31:31.797Z,0
2022-10-05T00:32:31.728Z,0
2022-10-05T00:33:31.676Z,0
2022-10-05T00:34:31.703Z,0
2022-10-05T00:35:31.745Z,0
2022-10-05T00:36:31.723Z,0
2022-10-05T00:37:31.726Z,0
2022-10-05T00:38:31.699Z,0
2022-10-05T00:39:31.669Z,0
2022-10-05T00:40:31.712Z,0
2022-10-05T00:41:31.693Z,0
2022-10-05T00:42:31.697Z,0
2022-10-05T00:43:31.690Z,0
2022-10-05T00:44:31.716Z,0
2022-10-05T00:45:31.842Z,0
2022-10-05T00:46:31.697Z,0
2022-10-05T00:47:31.698Z,0
2022-10-05T00:48:31.722Z,0
2022-10-05T00:49:31.686Z,0
2022-10-05T00:50:31.754Z,0
2022-10-05T00:51:31.678Z,0
2022-10-05T00:52:31.698Z,0
2022-10-05T00:53:31.710Z,0
2022-10-05T00:54:31.674Z,0
2022-10-05T00:55:31.680Z,0
2022-10-05T00:56:31.773Z,0
2022-10-05T00:57:31.806Z,0
2022-10-05T00:58:31.681Z,0
2022-10-05T00:59:31.665Z,0
2022-10-05T01:00:31.680Z,0
2022-10-05T01:01:31.795Z,0
2022-10-05T01:02:36.502Z,0
2022-10-05T01:03:31.674Z,0
2022-10-05T01:04:31.685Z,0
2022-10-05T01:05:31.684Z,0
2022-10-05T01:06:31.711Z,0
2022-10-05T01:07:31.682Z,0
2022-10-05T01:08:31.709Z,0
2022-10-05T01:09:31.678Z,0
2022-10-05T01:10:31.697Z,0
2022-10-05T01:11:31.657Z,0
2022-10-05T01:12:31.713Z,0
2022-10-05T01:13:31.784Z,0
2022-10-05T01:14:31.841Z,0
2022-10-05T01:15:31.698Z,0
2022-10-05T01:16:31.731Z,0
2022-10-05T01:17:31.685Z,0
2022-10-05T01:18:31.757Z,0
2022-10-05T01:19:31.745Z,0
2022-10-05T01:20:31.706Z,0
2022-10-05T01:21:31.707Z,0
2022-10-05T01:22:31.736Z,0
2022-10-05T01:23:31.659Z,0
2022-10-05T01:24:31.782Z,0
2022-10-05T01:25:31.711Z,0
2022-10-05T01:26:31.718Z,0
2022-10-05T01:27:31.655Z,0
2022-10-05T01:28:31.821Z,0
2022-10-05T01:29:31.713Z,0
2022-10-05T01:30:31.726Z,0
2022-10-05T01:31:31.712Z,0
2022-10-05T01:32:31.709Z,0
2022-10-05T01:33:31.723Z,0
2022-10-05T01:34:31.714Z,0
2022-10-05T01:35:31.708Z,0
2022-10-05T01:36:31.708Z,0
2022-10-05T01:37:31.678Z,0
2022-10-05T01:38:31.712Z,0
2022-10-05T01:39:31.727Z,0
2022-10-05T01:40:31.867Z,0
2022-10-05T01:41:31.864Z,0
2022-10-05T01:42:31.882Z,0
2022-10-05T01:43:31.869Z,0
2022-10-05T01:44:31.823Z,0
2022-10-05T01:45:31.860Z,0
2022-10-05T01:46:31.922Z,0
2022-10-05T01:47:31.885Z,0
2022-10-05T01:48:31.798Z,0
2022-10-05T01:49:31.685Z,0
2022-10-05T01:50:31.731Z,0
2022-10-05T01:51:31.699Z,0
2022-10-05T01:52:31.704Z,0
2022-10-05T01:53:31.689Z,0
2022-10-05T01:54:31.715Z,0
2022-10-05T01:55:31.722Z,0
2022-10-05T01:56:31.718Z,0
2022-10-05T01:57:31.687Z,0
2022-10-05T01:58:31.700Z,0
2022-10-05T01:59:31.739Z,0
2022-10-05T02:00:31.706Z,0
2022-10-05T02:01:31.700Z,0
2022-10-05T02:02:31.878Z,0
2022-10-05T02:03:31.701Z,0
2022-10-05T02:05:00.290Z,0
2022-10-05T02:05:31.719Z,0
2022-10-05T02:06:31.713Z,0
2022-10-05T02:07:31.693Z,0
2022-10-05T02:08:31.693Z,0
2022-10-05T02:09:31.683Z,0
2022-10-05T02:10:31.715Z,0
2022-10-05T02:11:31.694Z,0
2022-10-05T02:12:31.737Z,0
2022-10-05T02:13:31.696Z,0
2022-10-05T02:14:31.689Z,0
2022-10-05T02:15:31.737Z,0
2022-10-05T02:16:31.693Z,0
2022-10-05T02:17:31.689Z,0
2022-10-05T02:18:32.740Z,0
2022-10-05T02:19:31.712Z,0
2022-10-05T02:20:31.676Z,0
2022-10-05T02:21:31.702Z,0
2022-10-05T02:22:31.685Z,0
2022-10-05T02:23:31.690Z,0
2022-10-05T02:24:31.689Z,0
2022-10-05T02:25:31.680Z,0
2022-10-05T02:26:31.674Z,0
2022-10-05T02:27:31.686Z,0
2022-10-05T02:28:31.785Z,0
2022-10-05T02:29:31.684Z,0
2022-10-05T02:30:31.940Z,0
2022-10-05T02:31:31.769Z,0
2022-10-05T02:32:31.714Z,0
2022-10-05T02:33:31.703Z,0
2022-10-05T02:34:31.679Z,0
2022-10-05T02:35:31.692Z,0
2022-10-05T02:36:31.706Z,0
2022-10-05T02:37:31.683Z,0
2022-10-05T02:38:31.677Z,0
2022-10-05T02:39:31.695Z,0
2022-10-05T02:40:31.723Z,0
2022-10-05T02:41:31.680Z,0
2022-10-05T02:42:31.656Z,0
2022-10-05T02:43:31.689Z,0
2022-10-05T02:44:31.696Z,0
2022-10-05T02:45:31.804Z,0
2022-10-05T02:46:31.675Z,0
2022-10-05T02:47:31.709Z,0
2022-10-05T02:48:31.703Z,0
2022-10-05T02:49:31.696Z,0
2022-10-05T02:50:31.639Z,0
2022-10-05T02:51:31.689Z,0
2022-10-05T02:52:31.686Z,0
2022-10-05T02:53:31.708Z,0
2022-10-05T02:54:31.682Z,0
2022-10-05T02:55:31.695Z,0
2022-10-05T02:56:31.700Z,0
2022-10-05T02:57:31.716Z,0
2022-10-05T02:58:31.670Z,0
2022-10-05T02:59:31.702Z,0
2022-10-05T03:00:31.733Z,0
2022-10-05T03:01:31.813Z,0
2022-10-05T03:02:31.772Z,0
2022-10-05T03:03:31.714Z,0
2022-10-05T03:04:31.765Z,0
2022-10-05T03:05:31.715Z,0
2022-10-05T03:06:31.651Z,0
2022-10-05T03:07:31.714Z,0
2022-10-05T03:08:31.677Z,0
2022-10-05T03:09:31.684Z,0
2022-10-05T03:10:31.824Z,0
2022-10-05T03:11:31.733Z,0
2022-10-05T03:12:31.790Z,0
2022-10-05T03:13:31.783Z,0
2022-10-05T03:14:31.693Z,0
2022-10-05T03:15:31.817Z,0
2022-10-05T03:16:31.781Z,0
2022-10-05T03:17:31.730Z,0
2022-10-05T03:18:31.670Z,0
2022-10-05T03:19:31.798Z,0
2022-10-05T03:20:31.808Z,0
2022-10-05T03:21:31.676Z,0
2022-10-05T03:22:31.846Z,0
2022-10-05T03:23:31.868Z,0
2022-10-05T03:24:31.837Z,0
2022-10-05T03:25:31.825Z,0
2022-10-05T03:26:31.733Z,0
2022-10-05T03:27:31.867Z,0
2022-10-05T03:28:31.786Z,0
2022-10-05T03:29:31.748Z,0
2022-10-05T03:30:31.762Z,0
2022-10-05T03:31:31.872Z,0
2022-10-05T03:32:31.804Z,0
2022-10-05T03:33:31.690Z,0
2022-10-05T03:34:31.662Z,0
2022-10-05T03:35:31.737Z,0
2022-10-05T03:36:31.666Z,0
2022-10-05T03:37:31.812Z,0
2022-10-05T03:38:31.656Z,0
2022-10-05T03:39:31.711Z,0
2022-10-05T03:40:31.815Z,0
2022-10-05T03:41:31.828Z,0
2022-10-05T03:42:31.784Z,0
2022-10-05T03:43:31.815Z,0
2022-10-05T03:44:31.673Z,0
2022-10-05T03:45:31.742Z,0
2022-10-05T03:46:31.730Z,0
2022-10-05T03:47:31.694Z,0
2022-10-05T03:48:31.679Z,0
2022-10-05T03:49:31.708Z,0
2022-10-05T03:50:31.682Z,0
2022-10-05T03:51:31.694Z,0
2022-10-05T03:52:31.712Z,0
2022-10-05T03:53:31.677Z,0
2022-10-05T03:54:31.672Z,0
2022-10-05T03:55:31.679Z,0
2022-10-05T03:56:31.706Z,0
2022-10-05T03:57:31.687Z,0
2022-10-05T03:58:31.654Z,0
2022-10-05T03:59:32.805Z,0
2022-10-05T04:00:31.698Z,0
2022-10-05T04:01:31.714Z,0
2022-10-05T04:02:31.731Z,0
2022-10-05T04:03:31.850Z,0
2022-10-05T04:04:31.682Z,0
2022-10-05T04:05:31.715Z,0
2022-10-05T04:06:31.679Z,0
2022-10-05T04:07:31.701Z,0
2022-10-05T04:08:31.694Z,0
2022-10-05T04:09:31.735Z,0
2022-10-05T04:10:31.671Z,0
2022-10-05T04:11:31.681Z,0
2022-10-05T04:12:31.829Z,0
2022-10-05T04:13:31.726Z,0
2022-10-05T04:14:31.680Z,0
2022-10-05T04:15:31.737Z,0
2022-10-05T04:16:31.679Z,0
2022-10-05T04:17:31.677Z,0
2022-10-05T04:18:31.654Z,0
2022-10-05T04:19:31.702Z,0
2022-10-05T04:20:31.683Z,0
2022-10-05T04:21:31.699Z,0
2022-10-05T04:22:31.797Z,0
2022-10-05T04:23:31.696Z,0
2022-10-05T04:24:31.674Z,0
2022-10-05T04:25:31.697Z,0
2022-10-05T04:26:31.691Z,0
2022-10-05T04:27:31.689Z,0
2022-10-05T04:28:32.465Z,0
2022-10-05T04:29:31.683Z,0
2022-10-05T04:30:31.649Z,0
2022-10-05T04:31:31.740Z,0
2022-10-05T04:32:31.708Z,0
2022-10-05T04:33:31.675Z,0
2022-10-05T04:34:31.683Z,0
2022-10-05T04:35:31.692Z,0
2022-10-05T04:36:31.647Z,0
2022-10-05T04:37:31.694Z,0
2022-10-05T04:38:31.698Z,0
2022-10-05T04:39:31.711Z,0
2022-10-05T04:40:31.643Z,0
2022-10-05T04:41:31.714Z,0
2022-10-05T04:42:31.757Z,0
2022-10-05T04:43:31.685Z,0
2022-10-05T04:44:31.657Z,0
2022-10-05T04:45:31.687Z,0
2022-10-05T04:46:31.713Z,0
2022-10-05T04:47:31.706Z,0
2022-10-05T04:48:31.658Z,0
2022-10-05T04:49:31.676Z,0
2022-10-05T04:50:31.681Z,0
2022-10-05T04:51:31.692Z,0
2022-10-05T04:52:31.646Z,0
2022-10-05T04:53:31.727Z,0
2022-10-05T04:54:31.750Z,0
2022-10-05T04:55:31.699Z,0
2022-10-05T04:56:31.669Z,0
2022-10-05T04:57:31.672Z,0
2022-10-05T04:58:31.660Z,0
2022-10-05T04:59:31.709Z,0
2022-10-05T05:00:31.730Z,0
2022-10-05T05:01:31.696Z,0
2022-10-05T05:02:31.702Z,0
2022-10-05T05:03:31.893Z,0
2022-10-05T05:04:31.818Z,0
2022-10-05T05:05:31.702Z,0
2022-10-05T05:06:31.711Z,0
2022-10-05T05:07:31.707Z,0
2022-10-05T05:08:31.666Z,0
2022-10-05T05:09:31.691Z,0
2022-10-05T05:10:31.686Z,0
2022-10-05T05:11:31.682Z,0
2022-10-05T05:12:31.670Z,0.36
2022-10-05T05:13:31.739Z,0
2022-10-05T05:14:31.695Z,0
2022-10-05T05:15:31.675Z,0
2022-10-05T05:16:31.739Z,0
2022-10-05T05:17:31.706Z,0
2022-10-05T05:18:31.696Z,0.36
2022-10-05T05:19:31.686Z,0
2022-10-05T05:20:31.738Z,0
2022-10-05T05:21:31.683Z,0
2022-10-05T05:22:32.721Z,0.85
2022-10-05T05:23:31.863Z,0.36
2022-10-05T05:24:31.683Z,0.85
2022-10-05T05:25:31.668Z,0
2022-10-05T05:26:35.550Z,0
2022-10-05T05:27:31.674Z,0.85
2022-10-05T05:28:31.783Z,0
2022-10-05T05:29:31.704Z,1.22
2022-10-05T05:30:32.063Z,1.22
2022-10-05T05:31:31.811Z,0.85
2022-10-05T05:32:31.639Z,1.22
2022-10-05T05:33:31.695Z,1.71
2022-10-05T05:34:31.715Z,1.71
2022-10-05T05:35:31.671Z,2.08
2022-10-05T05:36:31.640Z,2.08
2022-10-05T05:37:31.695Z,1.71
2022-10-05T05:38:31.691Z,1.22
2022-10-05T05:39:31.710Z,2.08
2022-10-05T05:40:31.661Z,2.08
2022-10-05T05:41:31.670Z,2.08
2022-10-05T05:42:31.688Z,2.57
2022-10-05T05:43:31.643Z,2.94
2022-10-05T05:44:34.256Z,3.43
2022-10-05T05:45:31.675Z,2.08
2022-10-05T05:46:58.298Z,2.94
2022-10-05T05:47:31.766Z,2.57
2022-10-05T05:48:31.653Z,2.08
2022-10-05T05:49:31.816Z,2.94
2022-10-05T05:50:31.749Z,2.94
2022-10-05T05:51:31.689Z,2.94
2022-10-05T05:52:31.673Z,1.71
2022-10-05T05:53:31.677Z,1.71
2022-10-05T05:54:31.651Z,2.57
2022-10-05T05:55:31.676Z,1.22
2022-10-05T05:56:31.668Z,2.57
2022-10-05T05:57:31.697Z,2.08
2022-10-05T05:58:31.797Z,2.08
2022-10-05T05:59:31.695Z,1.71
2022-10-05T06:00:31.657Z,2.08
2022-10-05T06:01:33.660Z,2.94
2022-10-05T06:02:31.784Z,3.43
2022-10-05T06:03:31.694Z,2.57
2022-10-05T06:04:31.680Z,2.08
2022-10-05T06:05:31.721Z,2.57
2022-10-05T06:06:31.674Z,2.08
2022-10-05T06:07:31.702Z,2.94
2022-10-05T06:08:31.677Z,2.57
2022-10-05T06:09:31.721Z,2.08
2022-10-05T06:10:31.656Z,2.57
2022-10-05T06:11:31.677Z,2.57
2022-10-05T06:12:31.687Z,3.43
2022-10-05T06:13:31.674Z,3.79
2022-10-05T06:14:31.770Z,4.28
2022-10-05T06:15:31.725Z,5.63
2022-10-05T06:16:31.903Z,6.48
2022-10-05T06:17:31.755Z,5.14
2022-10-05T06:18:31.671Z,4.77
2022-10-05T06:19:31.727Z,2.94
2022-10-05T06:20:31.648Z,3.79
2022-10-05T06:21:31.692Z,3.43
2022-10-05T06:22:31.814Z,3.79
2022-10-05T06:23:31.690Z,4.28
2022-10-05T06:24:31.669Z,5.14
2022-10-05T06:25:31.675Z,5.63
2022-10-05T06:26:31.661Z,5.99
2022-10-05T06:27:31.687Z,5.63
2022-10-05T06:28:31.865Z,5.63
2022-10-05T06:29:31.828Z,5.14
2022-10-05T06:30:31.636Z,6.48
2022-10-05T06:31:31.772Z,5.99
2022-10-05T06:32:31.671Z,5.99
2022-10-05T06:33:31.698Z,6.48
2022-10-05T06:34:31.634Z,7.34
2022-10-05T06:35:31.703Z,7.7
2022-10-05T06:36:31.678Z,7.34
2022-10-05T06:37:31.683Z,6.85
2022-10-05T06:38:31.653Z,6.85
2022-10-05T06:39:31.663Z,6.48
2022-10-05T06:40:31.665Z,5.99
2022-10-05T06:41:31.666Z,5.99
2022-10-05T06:42:31.664Z,5.14
2022-10-05T06:43:31.867Z,5.99
2022-10-05T06:44:31.665Z,5.14
2022-10-05T06:45:31.787Z,5.63
2022-10-05T06:46:31.654Z,6.85
2022-10-05T06:47:31.685Z,6.48
2022-10-05T06:48:31.705Z,6.85
2022-10-05T06:49:31.760Z,5.99
2022-10-05T06:50:31.623Z,5.63
2022-10-05T06:51:31.684Z,5.63
2022-10-05T06:52:31.660Z,6.48
2022-10-05T06:53:31.668Z,5.63
2022-10-05T06:54:31.663Z,7.34
2022-10-05T06:55:31.667Z,6.85
2022-10-05T06:56:31.771Z,9.05
2022-10-05T06:57:31.863Z,9.05
2022-10-05T06:58:31.627Z,7.7
2022-10-05T06:59:31.758Z,7.7
2022-10-05T07:00:31.688Z,6.48
2022-10-05T07:01:31.783Z,6.48
2022-10-05T07:02:31.698Z,6.48
2022-10-05T07:03:31.669Z,5.63
2022-10-05T07:04:36.611Z,5.63
2022-10-05T07:05:31.692Z,6.85
2022-10-05T07:06:31.648Z,6.85
2022-10-05T07:07:31.662Z,8.19
2022-10-05T07:08:31.679Z,8.19
2022-10-05T07:09:31.670Z,8.56
2022-10-05T07:10:31.687Z,9.91
2022-10-05T07:11:32.036Z,10.39
2022-10-05T07:12:31.677Z,8.19
2022-10-05T07:13:31.737Z,9.05
2022-10-05T07:14:31.649Z,6.85
2022-10-05T07:15:31.659Z,7.34
2022-10-05T07:16:31.746Z,7.7
2022-10-05T07:17:31.708Z,10.77
2022-10-05T07:18:31.678Z,9.91
2022-10-05T07:19:31.688Z,8.56
2022-10-05T07:20:31.657Z,9.05
2022-10-05T07:21:31.643Z,10.77
2022-10-05T07:22:33.516Z,10.77
2022-10-05T07:23:31.677Z,13.82
2022-10-05T07:24:31.685Z,16.39
2022-10-05T07:25:31.677Z,17.73
2022-10-05T07:26:31.670Z,14.68
2022-10-05T07:27:31.656Z,13.82
2022-10-05T07:28:31.813Z,11.62
2022-10-05T07:29:31.665Z,11.25
2022-10-05T07:30:31.759Z,10.39
2022-10-05T07:31:31.668Z,10.39
2022-10-05T07:32:31.671Z,11.25
2022-10-05T07:33:31.622Z,10.39
2022-10-05T07:34:31.687Z,9.91
2022-10-05T07:35:31.674Z,10.39
2022-10-05T07:36:31.735Z,11.62
2022-10-05T07:37:31.662Z,13.82
2022-10-05T07:38:31.662Z,15.53
2022-10-05T07:39:55.380Z,21.16
2022-10-05T07:40:31.715Z,21.65
2022-10-05T07:41:31.657Z,25.07
2022-10-05T07:42:31.651Z,24.71
2022-10-05T07:43:45.320Z,22.87
2022-10-05T07:44:31.716Z,25.07
2022-10-05T07:45:31.669Z,25.56
2022-10-05T07:46:31.672Z,27.65
2022-10-05T07:47:31.662Z,18.11
2022-10-05T07:48:31.663Z,19.08
2022-10-05T07:49:31.693Z,20.8
2022-10-05T07:50:31.662Z,19.94
2022-10-05T07:51:31.672Z,21.16
2022-10-05T07:52:34.788Z,16.88
2022-10-05T07:53:31.646Z,21.16
2022-10-05T07:54:31.689Z,20.31
2022-10-05T07:55:31.673Z,22.87
2022-10-05T07:56:31.686Z,23.85
2022-10-05T07:57:31.637Z,23.85
2022-10-05T07:58:31.654Z,22.02
2022-10-05T07:59:31.681Z,21.65
2022-10-05T08:00:31.685Z,22.87
2022-10-05T08:01:31.728Z,25.07
2022-10-05T08:02:31.908Z,23.85
2022-10-05T08:03:31.674Z,22.51
2022-10-05T08:04:31.662Z,24.22
2022-10-05T08:05:31.650Z,22.51
2022-10-05T08:06:31.665Z,22.87
2022-10-05T08:07:31.688Z,23.85
2022-10-05T08:08:31.688Z,28.14
2022-10-05T08:09:31.693Z,29.48
2022-10-05T08:10:31.653Z,25.94
2022-10-05T08:11:31.656Z,25.94
2022-10-05T08:12:31.674Z,35.11
2022-10-05T08:13:31.624Z,41.59
2022-10-05T08:14:31.657Z,39.02
2022-10-05T08:15:31.665Z,35.48
2022-10-05T08:16:31.662Z,39.88
2022-10-05T08:17:31.632Z,40.73
2022-10-05T08:18:31.698Z,35.48
2022-10-05T08:19:31.722Z,36.33
2022-10-05T08:20:31.651Z,32.42
2022-10-05T08:21:31.628Z,29.48
2022-10-05T08:22:31.673Z,30.7
2022-10-05T08:23:31.660Z,28.14
2022-10-05T08:24:31.818Z,28.14
2022-10-05T08:25:31.642Z,25.07
2022-10-05T08:26:31.746Z,24.22
2022-10-05T08:27:31.644Z,25.07
2022-10-05T08:28:31.723Z,28.63
2022-10-05T08:29:31.627Z,31.19
2022-10-05T08:30:31.666Z,32.42
2022-10-05T08:31:31.868Z,31.56
2022-10-05T08:32:31.691Z,31.19
2022-10-05T08:33:31.663Z,31.56
2022-10-05T08:34:31.653Z,26.79
2022-10-05T08:35:31.626Z,22.51
2022-10-05T08:36:31.674Z,20.8
2022-10-05T08:37:31.844Z,22.87
2022-10-05T08:38:31.678Z,28.63
2022-10-05T08:39:31.642Z,34.62
2022-10-05T08:40:31.667Z,42.45
2022-10-05T08:41:31.645Z,45.51
2022-10-05T08:42:31.650Z,44.65
2022-10-05T08:43:35.156Z,45.87
2022-10-05T08:44:31.669Z,39.88
2022-10-05T08:45:31.671Z,37.68
2022-10-05T08:46:31.830Z,34.25
2022-10-05T08:47:31.817Z,35.48
2022-10-05T08:48:31.655Z,36.33
2022-10-05T08:49:35.003Z,32.42
2022-10-05T08:50:31.620Z,32.05
2022-10-05T08:51:31.672Z,33.76
2022-10-05T08:52:31.685Z,36.33
2022-10-05T08:53:31.672Z,35.11
2022-10-05T08:54:31.646Z,33.76
2022-10-05T08:55:31.719Z,32.05
2022-10-05T08:56:31.679Z,29.85
2022-10-05T08:57:31.657Z,28.14
2022-10-05T08:58:31.657Z,26.42
2022-10-05T08:59:31.688Z,27.28
2022-10-05T09:00:31.655Z,30.7
2022-10-05T09:01:32.077Z,36.82
2022-10-05T09:02:31.699Z,40.24
2022-10-05T09:03:34.467Z,45.51
2022-10-05T09:04:31.664Z,46.73
2022-10-05T09:05:31.675Z,36.33
2022-10-05T09:06:31.645Z,35.11
2022-10-05T09:07:31.635Z,28.14
2022-10-05T09:08:31.678Z,32.05
2022-10-05T09:09:31.650Z,33.76
2022-10-05T09:10:31.638Z,35.97
2022-10-05T09:11:31.705Z,41.1
2022-10-05T09:12:31.722Z,44.16
2022-10-05T09:13:31.633Z,44.16
2022-10-05T09:14:31.647Z,43.8
2022-10-05T09:15:31.689Z,42.45
2022-10-05T09:16:31.742Z,38.17
2022-10-05T09:17:34.721Z,35.48
2022-10-05T09:18:31.685Z,36.82
2022-10-05T09:19:31.654Z,35.97
2022-10-05T09:20:31.639Z,32.42
2022-10-05T09:21:31.643Z,33.39
2022-10-05T09:22:31.623Z,35.48
2022-10-05T09:23:31.657Z,33.76
2022-10-05T09:24:31.713Z,33.39
2022-10-05T09:25:31.633Z,34.62
2022-10-05T09:26:31.666Z,36.33
2022-10-05T09:27:31.709Z,37.19
2022-10-05T09:28:31.893Z,42.94
2022-10-05T09:29:31.665Z,38.53
2022-10-05T09:30:31.670Z,37.19
2022-10-05T09:31:31.759Z,40.24
2022-10-05T09:32:31.658Z,38.53
2022-10-05T09:33:31.608Z,40.24
2022-10-05T09:34:31.651Z,39.39
2022-10-05T09:35:31.764Z,41.1
2022-10-05T09:36:31.668Z,40.24
2022-10-05T09:37:31.618Z,48.07
2022-10-05T09:38:31.689Z,46.73
2022-10-05T09:39:31.660Z,43.8
2022-10-05T09:40:31.664Z,41.1
2022-10-05T09:41:31.629Z,41.1
2022-10-05T09:42:31.652Z,42.94
2022-10-05T09:43:31.667Z,46.36
2022-10-05T09:44:31.668Z,48.07
2022-10-05T09:45:31.624Z,51.99
2022-10-05T09:46:31.725Z,46.73
2022-10-05T09:47:31.769Z,43.8
2022-10-05T09:48:31.671Z,39.39
2022-10-05T09:49:31.672Z,37.19
2022-10-05T09:50:31.640Z,36.33
2022-10-05T09:51:31.661Z,36.82
2022-10-05T09:52:31.665Z,35.48
2022-10-05T09:53:31.633Z,30.34
2022-10-05T09:54:31.653Z,31.19
2022-10-05T09:55:31.693Z,28.99
2022-10-05T09:56:31.645Z,28.63
2022-10-05T09:57:31.621Z,34.62
2022-10-05T09:58:31.655Z,37.68
2022-10-05T09:59:31.731Z,36.33
2022-10-05T10:00:31.644Z,35.11
2022-10-05T10:01:34.270Z,36.33
2022-10-05T10:02:31.772Z,43.8
2022-10-05T10:03:31.745Z,48.07
2022-10-05T10:04:31.862Z,50.28
2022-10-05T10:05:31.643Z,44.16
2022-10-05T10:06:31.658Z,41.59
2022-10-05T10:07:31.617Z,41.96
2022-10-05T10:08:31.577Z,41.96
2022-10-05T10:09:35.203Z,35.97
2022-10-05T10:10:31.623Z,31.56
2022-10-05T10:11:31.649Z,29.48
2022-10-05T10:12:31.682Z,28.14
2022-10-05T10:13:31.726Z,30.34
2022-10-05T10:14:31.658Z,32.05
2022-10-05T10:15:31.725Z,30.34
2022-10-05T10:16:31.673Z,27.28
2022-10-05T10:17:31.630Z,28.14
2022-10-05T10:18:31.651Z,28.14
2022-10-05T10:19:31.623Z,30.7
2022-10-05T10:20:31.740Z,29.48
2022-10-05T10:21:31.837Z,30.34
2022-10-05T10:22:31.688Z,27.28
2022-10-05T10:23:31.641Z,26.79
2022-10-05T10:24:31.885Z,31.19
2022-10-05T10:25:31.646Z,29.85
2022-10-05T10:26:31.634Z,28.14
2022-10-05T10:27:31.659Z,25.56
2022-10-05T10:28:31.750Z,27.28
2022-10-05T10:29:31.649Z,28.99
2022-10-05T10:30:33.165Z,30.34
2022-10-05T10:31:31.747Z,26.79
2022-10-05T10:32:31.630Z,25.94
2022-10-05T10:33:31.603Z,25.94
2022-10-05T10:34:31.675Z,26.79
2022-10-05T10:35:31.797Z,26.42
2022-10-05T10:36:31.650Z,28.14
2022-10-05T10:37:31.627Z,32.9
2022-10-05T10:38:31.664Z,35.11
2022-10-05T10:39:31.651Z,36.82
2022-10-05T10:40:31.666Z,33.39
2022-10-05T10:41:31.632Z,33.76
2022-10-05T10:42:31.634Z,31.56
2022-10-05T10:43:32.379Z,31.19
2022-10-05T10:44:31.661Z,29.85
2022-10-05T10:45:31.625Z,31.19
2022-10-05T10:46:31.669Z,35.48
2022-10-05T10:47:31.645Z,33.39
2022-10-05T10:48:31.646Z,33.39
2022-10-05T10:49:31.639Z,35.11
2022-10-05T10:50:31.651Z,36.33
2022-10-05T10:51:31.661Z,39.02
2022-10-05T10:52:31.642Z,39.39
2022-10-05T10:53:31.618Z,39.39
2022-10-05T10:54:31.639Z,37.68
2022-10-05T10:55:31.658Z,36.82
2022-10-05T10:56:31.775Z,43.8
2022-10-05T10:57:31.632Z,53.34
2022-10-05T10:58:31.652Z,51.5
2022-10-05T10:59:31.909Z,48.56
2022-10-05T11:00:31.649Z,40.73
2022-10-05T11:01:31.742Z,51.5
2022-10-05T11:02:31.786Z,52.85
2022-10-05T11:03:31.665Z,45.87
2022-10-05T11:04:31.659Z,48.07
2022-10-05T11:05:31.605Z,44.65
2022-10-05T11:06:31.716Z,46.36
2022-10-05T11:07:31.638Z,53.7
2022-10-05T11:08:31.661Z,51.99
2022-10-05T11:09:31.629Z,49.79
2022-10-05T11:10:31.668Z,49.79
2022-10-05T11:11:31.653Z,43.31
2022-10-05T11:12:34.584Z,44.65
2022-10-05T11:13:31.601Z,44.16
2022-10-05T11:14:31.663Z,43.8
2022-10-05T11:15:31.653Z,49.42
2022-10-05T11:16:31.651Z,56.76
2022-10-05T11:17:31.607Z,59.33
2022-10-05T11:18:31.638Z,57.62
2022-10-05T11:19:40.225Z,56.76
2022-10-05T11:20:31.630Z,62.39
2022-10-05T11:21:31.697Z,58.48
2022-10-05T11:22:31.632Z,57.62
2022-10-05T11:23:36.515Z,46.73
2022-10-05T11:24:31.638Z,38.17
2022-10-05T11:25:31.614Z,33.39
2022-10-05T11:26:31.663Z,33.76
2022-10-05T11:27:31.635Z,37.19
2022-10-05T11:28:31.725Z,29.85
2022-10-05T11:29:31.594Z,24.71
2022-10-05T11:30:31.736Z,27.28
2022-10-05T11:31:31.780Z,24.22
2022-10-05T11:32:31.647Z,28.14
2022-10-05T11:33:31.659Z,41.96
2022-10-05T11:34:31.689Z,48.93
2022-10-05T11:35:31.625Z,44.16
2022-10-05T11:36:31.655Z,38.17
2022-10-05T11:37:31.831Z,49.42
2022-10-05T11:38:31.773Z,60.19
2022-10-05T11:39:31.668Z,61.53
2022-10-05T11:40:31.628Z,55.05
2022-10-05T11:41:31.609Z,41.59
2022-10-05T11:42:31.665Z,36.33
2022-10-05T11:43:31.647Z,32.42
2022-10-05T11:44:31.758Z,35.48
2022-10-05T11:45:31.635Z,43.8
2022-10-05T11:46:31.683Z,46.36
2022-10-05T11:47:31.806Z,47.22
2022-10-05T11:48:31.658Z,45.51
2022-10-05T11:49:31.641Z,45.02
2022-10-05T11:50:31.662Z,48.56
2022-10-05T11:51:31.633Z,45.02
2022-10-05T11:52:31.622Z,41.1
2022-10-05T11:53:31.605Z,45.87
2022-10-05T11:54:35.137Z,51.5
2022-10-05T11:55:31.682Z,52.85
2022-10-05T11:56:31.618Z,54.19
2022-10-05T11:57:31.616Z,50.28
2022-10-05T11:58:31.636Z,45.02
2022-10-05T11:59:31.717Z,38.17
2022-10-05T12:00:31.720Z,40.73
2022-10-05T12:01:31.620Z,41.59
2022-10-05T12:02:31.835Z,42.45
2022-10-05T12:03:31.790Z,49.42
2022-10-05T12:04:31.670Z,54.56
2022-10-05T12:05:31.658Z,60.19
2022-10-05T12:06:31.640Z,62.88
2022-10-05T12:07:31.634Z,61.17
2022-10-05T12:08:31.674Z,57.62
2022-10-05T12:09:31.628Z,61.17
2022-10-05T12:10:31.819Z,62.88
2022-10-05T12:11:31.636Z,62.88
2022-10-05T12:12:31.718Z,62.39
2022-10-05T12:13:31.692Z,61.17
2022-10-05T12:14:31.666Z,60.19
2022-10-05T12:15:31.675Z,58.11
2022-10-05T12:16:31.633Z,57.25
2022-10-05T12:17:31.726Z,55.41
2022-10-05T12:18:31.660Z,53.7
2022-10-05T12:19:31.628Z,53.34
2022-10-05T12:20:31.756Z,50.28
2022-10-05T12:21:31.614Z,47.22
2022-10-05T12:22:31.628Z,43.8
2022-10-05T12:23:31.648Z,40.73
2022-10-05T12:24:31.648Z,40.24
2022-10-05T12:25:31.624Z,42.94
2022-10-05T12:26:31.627Z,42.94
2022-10-05T12:27:31.648Z,45.51
2022-10-05T12:28:31.741Z,48.07
2022-10-05T12:29:31.592Z,47.71
2022-10-05T12:30:31.649Z,46.36
2022-10-05T12:31:31.761Z,44.65
2022-10-05T12:32:31.659Z,41.96
2022-10-05T12:33:31.648Z,39.88
2022-10-05T12:34:31.636Z,39.02
2022-10-05T12:35:47.313Z,37.68
2022-10-05T12:36:46.217Z,36.82
2022-10-05T12:37:31.718Z,36.82
2022-10-05T12:38:31.619Z,34.25
2022-10-05T12:39:31.616Z,35.48
2022-10-05T12:40:31.640Z,35.97
2022-10-05T12:41:31.919Z,37.68
2022-10-05T12:42:31.652Z,38.17
2022-10-05T12:43:31.807Z,35.97
2022-10-05T12:44:31.772Z,33.76
2022-10-05T12:45:31.649Z,32.05
2022-10-05T12:46:31.621Z,31.56
2022-10-05T12:47:31.639Z,31.56
2022-10-05T12:48:31.656Z,31.19
2022-10-05T12:49:31.587Z,30.7
2022-10-05T12:50:31.748Z,30.34
2022-10-05T12:51:31.622Z,30.7
2022-10-05T12:52:31.627Z,32.9
2022-10-05T12:53:31.608Z,33.39
2022-10-05T12:54:31.725Z,33.76
2022-10-05T12:55:31.672Z,30.7
2022-10-05T12:56:31.683Z,30.34
2022-10-05T12:57:31.609Z,29.48
2022-10-05T12:58:31.722Z,27.65
2022-10-05T12:59:31.694Z,27.28
2022-10-05T13:00:31.691Z,25.56
2022-10-05T13:01:31.698Z,25.94
2022-10-05T13:02:31.632Z,25.07
2022-10-05T13:03:31.641Z,25.94
2022-10-05T13:04:31.657Z,26.79
2022-10-05T13:05:31.627Z,27.65
2022-10-05T13:06:31.653Z,25.94
2022-10-05T13:07:31.638Z,26.42
2022-10-05T13:08:31.633Z,25.56
2022-10-05T13:09:31.600Z,24.71
2022-10-05T13:10:31.661Z,22.51
2022-10-05T13:11:31.612Z,20.8
2022-10-05T13:12:31.639Z,16.02
2022-10-05T13:13:31.641Z,15.17
2022-10-05T13:14:31.635Z,16.88
2022-10-05T13:15:31.667Z,17.25
2022-10-05T13:16:31.691Z,19.08
2022-10-05T13:17:31.578Z,20.8
2022-10-05T13:18:31.644Z,19.08
2022-10-05T13:19:31.668Z,15.17
2022-10-05T13:20:31.628Z,16.39
2022-10-05T13:21:31.595Z,18.6
2022-10-05T13:22:31.658Z,19.08
2022-10-05T13:23:31.631Z,21.16
2022-10-05T13:24:31.691Z,19.94
2022-10-05T13:25:31.594Z,19.94
2022-10-05T13:26:31.765Z,19.94
2022-10-05T13:27:31.688Z,16.39
2022-10-05T13:28:31.663Z,14.68
2022-10-05T13:29:31.603Z,13.82
2022-10-05T13:30:31.620Z,12.48
2022-10-05T13:31:31.654Z,11.62
2022-10-05T13:32:31.658Z,11.62
2022-10-05T13:33:31.647Z,12.11
2022-10-05T13:34:31.633Z,12.48
2022-10-05T13:35:31.619Z,12.48
2022-10-05T13:36:31.607Z,11.62
2022-10-05T13:37:31.655Z,11.25
2022-10-05T13:38:31.606Z,11.62
2022-10-05T13:39:31.583Z,12.11